sensor_id;sensor_type;location;lat;lon;timestamp;P1;durP1;ratioP1;P2;durP2;ratioP2
11655;SDS011;5884;43.618;1.438;2022-09-09T04:47:34;5.80;;;1.50;;
11655;SDS011;5884;43.618;1.438;2022-09-09T04:50:02;2.50;;;1.30;;
11655;SDS011;5884;43.618;1.438;2022-09-09T04:52:30;3.67;;;1.40;;
11655;SDS011;5884;43.618;1.438;2022-09-09T04:54:57;3.70;;;1.50;;
11655;SDS011;5884;43.618;1.438;2022-09-09T04:57:25;3.10;;;1.80;;
11655;SDS011;5884;43.618;1.438;2022-09-09T04:59:53;2.73;;;1.60;;
11655;SDS011;5884;43.618;1.438;2022-09-09T05:02:21;4.17;;;1.43;;
11655;SDS011;5884;43.618;1.438;2022-09-09T05:04:49;2.37;;;1.40;;
11655;SDS011;5884;43.618;1.438;2022-09-09T05:07:16;3.53;;;1.57;;
11655;SDS011;5884;43.618;1.438;2022-09-09T05:09:44;4.43;;;1.97;;
11655;SDS011;5884;43.618;1.438;2022-09-09T05:12:13;4.37;;;1.50;;
11655;SDS011;5884;43.618;1.438;2022-09-09T05:14:41;4.37;;;1.57;;
11655;SDS011;5884;43.618;1.438;2022-09-09T05:17:08;3.80;;;1.40;;
11655;SDS011;5884;43.618;1.438;2022-09-09T05:19:36;2.13;;;1.30;;
11655;SDS011;5884;43.618;1.438;2022-09-09T05:22:05;5.80;;;1.50;;
11655;SDS011;5884;43.618;1.438;2022-09-09T05:24:32;4.13;;;1.60;;
11655;SDS011;5884;43.618;1.438;2022-09-09T05:27:00;2.60;;;1.40;;
11655;SDS011;5884;43.618;1.438;2022-09-09T05:29:27;4.10;;;1.60;;
11655;SDS011;5884;43.618;1.438;2022-09-09T05:31:57;3.77;;;1.57;;
11655;SDS011;5884;43.618;1.438;2022-09-09T05:34:24;5.20;;;1.80;;
11655;SDS011;5884;43.618;1.438;2022-09-09T05:36:52;5.27;;;1.77;;
11655;SDS011;5884;43.618;1.438;2022-09-09T05:39:20;4.03;;;1.60;;
11655;SDS011;5884;43.618;1.438;2022-09-09T05:41:47;3.67;;;1.60;;
11655;SDS011;5884;43.618;1.438;2022-09-09T05:44:16;3.63;;;1.80;;
11655;SDS011;5884;43.618;1.438;2022-09-09T05:46:44;5.13;;;1.90;;
11655;SDS011;5884;43.618;1.438;2022-09-09T05:49:12;1.93;;;1.70;;
11655;SDS011;5884;43.618;1.438;2022-09-09T05:51:40;5.43;;;2.53;;
11655;SDS011;5884;43.618;1.438;2022-09-09T05:54:09;6.27;;;2.17;;
11655;SDS011;5884;43.618;1.438;2022-09-09T05:56:40;5.53;;;2.17;;
11655;SDS011;5884;43.618;1.438;2022-09-09T05:59:07;5.77;;;2.10;;
11655;SDS011;5884;43.618;1.438;2022-09-09T06:01:35;5.87;;;2.50;;
11655;SDS011;5884;43.618;1.438;2022-09-09T06:04:05;5.13;;;2.30;;
11655;SDS011;5884;43.618;1.438;2022-09-09T06:06:34;6.63;;;2.30;;
11655;SDS011;5884;43.618;1.438;2022-09-09T06:09:05;7.10;;;2.57;;
11655;SDS011;5884;43.618;1.438;2022-09-09T06:11:35;3.83;;;2.60;;
11655;SDS011;5884;43.618;1.438;2022-09-09T06:14:05;6.20;;;2.27;;
11655;SDS011;5884;43.618;1.438;2022-09-09T06:16:34;4.80;;;2.30;;
11655;SDS011;5884;43.618;1.438;2022-09-09T06:19:02;7.27;;;2.87;;
11655;SDS011;5884;43.618;1.438;2022-09-09T06:21:30;8.00;;;2.87;;
11655;SDS011;5884;43.618;1.438;2022-09-09T06:24:01;6.63;;;2.40;;
11655;SDS011;5884;43.618;1.438;2022-09-09T06:26:29;6.43;;;2.43;;
11655;SDS011;5884;43.618;1.438;2022-09-09T06:28:59;3.10;;;2.30;;
11655;SDS011;5884;43.618;1.438;2022-09-09T06:31:30;6.70;;;2.47;;
11655;SDS011;5884;43.618;1.438;2022-09-09T06:34:00;5.77;;;2.70;;
11655;SDS011;5884;43.618;1.438;2022-09-09T06:36:28;7.63;;;2.00;;
11655;SDS011;5884;43.618;1.438;2022-09-09T06:38:57;6.43;;;2.90;;
11655;SDS011;5884;43.618;1.438;2022-09-09T06:41:26;4.37;;;2.40;;
11655;SDS011;5884;43.618;1.438;2022-09-09T06:43:55;4.57;;;2.40;;
11655;SDS011;5884;43.618;1.438;2022-09-09T06:46:22;4.40;;;1.90;;
11655;SDS011;5884;43.618;1.438;2022-09-09T06:48:54;5.43;;;2.07;;
11655;SDS011;5884;43.618;1.438;2022-09-09T06:51:24;3.73;;;2.10;;
11655;SDS011;5884;43.618;1.438;2022-09-09T06:53:53;5.90;;;1.97;;
11655;SDS011;5884;43.618;1.438;2022-09-09T06:56:23;3.80;;;2.10;;
11655;SDS011;5884;43.618;1.438;2022-09-09T06:58:53;5.97;;;2.30;;
11655;SDS011;5884;43.618;1.438;2022-09-09T07:01:23;4.07;;;1.90;;
11655;SDS011;5884;43.618;1.438;2022-09-09T07:03:55;5.70;;;2.00;;
11655;SDS011;5884;43.618;1.438;2022-09-09T07:06:24;5.80;;;2.20;;
11655;SDS011;5884;43.618;1.438;2022-09-09T07:08:53;4.77;;;1.83;;
11655;SDS011;5884;43.618;1.438;2022-09-09T07:11:24;4.10;;;1.90;;
11655;SDS011;5884;43.618;1.438;2022-09-09T07:13:54;6.87;;;2.30;;
11655;SDS011;5884;43.618;1.438;2022-09-09T07:16:23;6.23;;;2.10;;
11655;SDS011;5884;43.618;1.438;2022-09-09T07:18:51;4.57;;;2.20;;
11655;SDS011;5884;43.618;1.438;2022-09-09T07:21:24;6.33;;;2.30;;
11655;SDS011;5884;43.618;1.438;2022-09-09T07:23:53;4.60;;;2.20;;
11655;SDS011;5884;43.618;1.438;2022-09-09T07:26:21;4.53;;;1.93;;
11655;SDS011;5884;43.618;1.438;2022-09-09T07:28:51;3.50;;;2.00;;
11655;SDS011;5884;43.618;1.438;2022-09-09T07:31:19;2.40;;;1.70;;
11655;SDS011;5884;43.618;1.438;2022-09-09T07:33:50;2.93;;;1.90;;
11655;SDS011;5884;43.618;1.438;2022-09-09T07:36:18;2.63;;;1.90;;
11655;SDS011;5884;43.618;1.438;2022-09-09T07:38:50;4.33;;;2.30;;
11655;SDS011;5884;43.618;1.438;2022-09-09T07:41:20;7.87;;;2.20;;
11655;SDS011;5884;43.618;1.438;2022-09-09T07:43:51;3.13;;;2.00;;
11655;SDS011;5884;43.618;1.438;2022-09-09T07:46:20;6.23;;;2.70;;
11655;SDS011;5884;43.618;1.438;2022-09-09T07:48:51;6.73;;;2.10;;
11655;SDS011;5884;43.618;1.438;2022-09-09T07:51:20;3.40;;;2.10;;
11655;SDS011;5884;43.618;1.438;2022-09-09T07:53:52;8.10;;;2.33;;
11655;SDS011;5884;43.618;1.438;2022-09-09T07:56:22;4.20;;;2.40;;
11655;SDS011;5884;43.618;1.438;2022-09-09T07:58:52;5.60;;;2.50;;
11655;SDS011;5884;43.618;1.438;2022-09-09T08:01:21;7.07;;;2.67;;
11655;SDS011;5884;43.618;1.438;2022-09-09T08:03:54;4.57;;;2.40;;
11655;SDS011;5884;43.618;1.438;2022-09-09T08:06:25;5.77;;;2.67;;
11655;SDS011;5884;43.618;1.438;2022-09-09T08:08:54;7.60;;;2.47;;
11655;SDS011;5884;43.618;1.438;2022-09-09T08:11:23;7.07;;;2.37;;
11655;SDS011;5884;43.618;1.438;2022-09-09T08:13:52;6.60;;;2.80;;
11655;SDS011;5884;43.618;1.438;2022-09-09T08:16:21;6.50;;;2.57;;
11655;SDS011;5884;43.618;1.438;2022-09-09T08:18:50;7.23;;;2.53;;
11655;SDS011;5884;43.618;1.438;2022-09-09T08:21:19;6.70;;;2.80;;
11655;SDS011;5884;43.618;1.438;2022-09-09T08:23:50;7.97;;;2.80;;
11655;SDS011;5884;43.618;1.438;2022-09-09T08:26:21;6.47;;;2.83;;
11655;SDS011;5884;43.618;1.438;2022-09-09T08:28:51;7.93;;;2.73;;
11655;SDS011;5884;43.618;1.438;2022-09-09T08:31:21;3.83;;;2.13;;
11655;SDS011;5884;43.618;1.438;2022-09-09T08:33:51;6.17;;;2.43;;
11655;SDS011;5884;43.618;1.438;2022-09-09T08:36:19;3.70;;;2.20;;
11655;SDS011;5884;43.618;1.438;2022-09-09T08:38:48;4.97;;;2.70;;
11655;SDS011;5884;43.618;1.438;2022-09-09T08:41:30;4.37;;;2.40;;
11655;SDS011;5884;43.618;1.438;2022-09-09T08:44:14;4.20;;;2.60;;
11655;SDS011;5884;43.618;1.438;2022-09-09T08:46:51;7.30;;;2.67;;
11655;SDS011;5884;43.618;1.438;2022-09-09T08:49:36;5.10;;;2.40;;
11655;SDS011;5884;43.618;1.438;2022-09-09T08:52:27;5.20;;;2.60;;
11655;SDS011;5884;43.618;1.438;2022-09-09T08:54:58;4.63;;;2.20;;
11655;SDS011;5884;43.618;1.438;2022-09-09T08:57:39;4.23;;;2.20;;
11655;SDS011;5884;43.618;1.438;2022-09-09T09:00:08;5.20;;;2.53;;
11655;SDS011;5884;43.618;1.438;2022-09-09T09:02:39;8.43;;;2.67;;
11655;SDS011;5884;43.618;1.438;2022-09-09T09:05:17;3.70;;;2.10;;
11655;SDS011;5884;43.618;1.438;2022-09-09T09:07:54;3.83;;;1.90;;
11655;SDS011;5884;43.618;1.438;2022-09-09T09:10:38;5.90;;;1.60;;
11655;SDS011;5884;43.618;1.438;2022-09-09T09:13:16;3.57;;;1.70;;
11655;SDS011;5884;43.618;1.438;2022-09-09T09:15:48;7.97;;;2.00;;
11655;SDS011;5884;43.618;1.438;2022-09-09T09:18:21;3.63;;;1.50;;
11655;SDS011;5884;43.618;1.438;2022-09-09T09:20:50;5.10;;;1.87;;
11655;SDS011;5884;43.618;1.438;2022-09-09T09:23:25;4.80;;;1.67;;
11655;SDS011;5884;43.618;1.438;2022-09-09T09:26:01;4.17;;;1.70;;
11655;SDS011;5884;43.618;1.438;2022-09-09T09:28:35;5.07;;;1.60;;
11655;SDS011;5884;43.618;1.438;2022-09-09T09:31:03;5.13;;;1.60;;
11655;SDS011;5884;43.618;1.438;2022-09-09T09:33:34;4.17;;;1.90;;
11655;SDS011;5884;43.618;1.438;2022-09-09T09:36:12;3.07;;;1.47;;
11655;SDS011;5884;43.618;1.438;2022-09-09T09:38:51;3.50;;;1.53;;
11655;SDS011;5884;43.618;1.438;2022-09-09T09:41:30;3.83;;;1.83;;
11655;SDS011;5884;43.618;1.438;2022-09-09T09:44:03;7.97;;;2.40;;
11655;SDS011;5884;43.618;1.438;2022-09-09T09:46:31;3.83;;;1.97;;
11655;SDS011;5884;43.618;1.438;2022-09-09T09:48:59;6.10;;;1.70;;
11655;SDS011;5884;43.618;1.438;2022-09-09T09:51:30;6.60;;;1.70;;
11655;SDS011;5884;43.618;1.438;2022-09-09T09:54:04;4.93;;;1.90;;
11655;SDS011;5884;43.618;1.438;2022-09-09T09:56:41;5.03;;;2.23;;
11655;SDS011;5884;43.618;1.438;2022-09-09T09:59:21;5.97;;;2.00;;
11655;SDS011;5884;43.618;1.438;2022-09-09T10:01:50;3.47;;;1.90;;
11655;SDS011;5884;43.618;1.438;2022-09-09T10:04:18;6.27;;;1.97;;
11655;SDS011;5884;43.618;1.438;2022-09-09T10:06:48;3.83;;;1.80;;
11655;SDS011;5884;43.618;1.438;2022-09-09T10:09:20;4.77;;;1.90;;
11655;SDS011;5884;43.618;1.438;2022-09-09T10:11:53;3.17;;;1.93;;
11655;SDS011;5884;43.618;1.438;2022-09-09T10:14:28;3.50;;;2.00;;
11655;SDS011;5884;43.618;1.438;2022-09-09T10:17:05;3.67;;;1.87;;
11655;SDS011;5884;43.618;1.438;2022-09-09T10:19:45;3.13;;;2.00;;
11655;SDS011;5884;43.618;1.438;2022-09-09T10:22:26;4.53;;;2.03;;
11655;SDS011;5884;43.618;1.438;2022-09-09T10:25:13;4.27;;;1.90;;
11655;SDS011;5884;43.618;1.438;2022-09-09T10:28:17;3.37;;;2.00;;
11655;SDS011;5884;43.618;1.438;2022-09-09T10:31:10;3.77;;;2.00;;
11655;SDS011;5884;43.618;1.438;2022-09-09T10:33:49;3.03;;;1.83;;
11655;SDS011;5884;43.618;1.438;2022-09-09T10:36:20;3.20;;;1.97;;
11655;SDS011;5884;43.618;1.438;2022-09-09T10:38:52;6.50;;;1.70;;
11655;SDS011;5884;43.618;1.438;2022-09-09T10:41:30;6.63;;;2.03;;
11655;SDS011;5884;43.618;1.438;2022-09-09T10:50:36;5.07;;;1.70;;
11655;SDS011;5884;43.618;1.438;2022-09-09T10:53:17;4.43;;;1.63;;
11655;SDS011;5884;43.618;1.438;2022-09-09T10:55:56;4.17;;;1.73;;
11655;SDS011;5884;43.618;1.438;2022-09-09T10:58:31;4.40;;;1.63;;
11655;SDS011;5884;43.618;1.438;2022-09-09T11:01:10;4.33;;;2.10;;
11655;SDS011;5884;43.618;1.438;2022-09-09T11:03:44;2.90;;;1.83;;
11655;SDS011;5884;43.618;1.438;2022-09-09T11:06:21;5.20;;;1.60;;
11655;SDS011;5884;43.618;1.438;2022-09-09T11:08:55;6.40;;;2.20;;
11655;SDS011;5884;43.618;1.438;2022-09-09T11:11:27;7.80;;;2.37;;
11655;SDS011;5884;43.618;1.438;2022-09-09T11:14:01;5.70;;;2.23;;
11655;SDS011;5884;43.618;1.438;2022-09-09T11:16:36;8.43;;;2.13;;
11655;SDS011;5884;43.618;1.438;2022-09-09T11:19:13;4.07;;;2.17;;
11655;SDS011;5884;43.618;1.438;2022-09-09T11:21:48;3.97;;;2.10;;
11655;SDS011;5884;43.618;1.438;2022-09-09T11:24:18;6.33;;;2.73;;
11655;SDS011;5884;43.618;1.438;2022-09-09T11:26:51;4.70;;;2.53;;
11655;SDS011;5884;43.618;1.438;2022-09-09T11:32:37;7.17;;;2.07;;
11655;SDS011;5884;43.618;1.438;2022-09-09T11:35:27;6.63;;;2.50;;
11655;SDS011;5884;43.618;1.438;2022-09-09T11:38:10;4.83;;;2.30;;
11655;SDS011;5884;43.618;1.438;2022-09-09T11:40:56;7.97;;;2.37;;
11655;SDS011;5884;43.618;1.438;2022-09-09T11:43:27;4.37;;;2.07;;
11655;SDS011;5884;43.618;1.438;2022-09-09T11:45:58;8.77;;;2.60;;
11655;SDS011;5884;43.618;1.438;2022-09-09T11:48:29;4.87;;;1.93;;
11655;SDS011;5884;43.618;1.438;2022-09-09T11:51:06;6.27;;;2.03;;
11655;SDS011;5884;43.618;1.438;2022-09-09T11:53:35;6.20;;;3.00;;
11655;SDS011;5884;43.618;1.438;2022-09-09T11:56:24;6.93;;;3.23;;
11655;SDS011;5884;43.618;1.438;2022-09-09T11:59:00;7.67;;;2.80;;
11655;SDS011;5884;43.618;1.438;2022-09-09T12:01:36;9.40;;;3.43;;
11655;SDS011;5884;43.618;1.438;2022-09-09T12:07:03;5.63;;;2.33;;
11655;SDS011;5884;43.618;1.438;2022-09-09T12:09:51;3.53;;;1.83;;
11655;SDS011;5884;43.618;1.438;2022-09-09T12:12:24;4.77;;;1.70;;
11655;SDS011;5884;43.618;1.438;2022-09-09T12:14:57;8.53;;;2.10;;
11655;SDS011;5884;43.618;1.438;2022-09-09T12:17:46;3.93;;;1.57;;
11655;SDS011;5884;43.618;1.438;2022-09-09T12:20:17;4.70;;;1.70;;
11655;SDS011;5884;43.618;1.438;2022-09-09T12:22:53;4.77;;;2.00;;
11655;SDS011;5884;43.618;1.438;2022-09-09T12:25:59;4.93;;;1.80;;
11655;SDS011;5884;43.618;1.438;2022-09-09T12:28:44;3.67;;;1.70;;
11655;SDS011;5884;43.618;1.438;2022-09-09T12:31:22;6.27;;;1.47;;
11655;SDS011;5884;43.618;1.438;2022-09-09T12:34:02;7.30;;;2.00;;
11655;SDS011;5884;43.618;1.438;2022-09-09T12:36:37;7.40;;;3.13;;
11655;SDS011;5884;43.618;1.438;2022-09-09T12:39:15;5.07;;;1.90;;
11655;SDS011;5884;43.618;1.438;2022-09-09T12:41:52;5.40;;;1.73;;
11655;SDS011;5884;43.618;1.438;2022-09-09T12:44:23;5.47;;;1.77;;
11655;SDS011;5884;43.618;1.438;2022-09-09T12:46:53;4.27;;;1.67;;
11655;SDS011;5884;43.618;1.438;2022-09-09T12:49:26;7.10;;;1.93;;
11655;SDS011;5884;43.618;1.438;2022-09-09T12:52:00;6.00;;;2.20;;
11655;SDS011;5884;43.618;1.438;2022-09-09T12:54:32;4.13;;;1.70;;
11655;SDS011;5884;43.618;1.438;2022-09-09T12:57:01;5.63;;;1.63;;
11655;SDS011;5884;43.618;1.438;2022-09-09T12:59:35;7.93;;;1.73;;
11655;SDS011;5884;43.618;1.438;2022-09-09T13:02:10;5.47;;;1.63;;
11655;SDS011;5884;43.618;1.438;2022-09-09T13:04:45;4.80;;;1.77;;
11655;SDS011;5884;43.618;1.438;2022-09-09T13:07:13;6.27;;;1.90;;
11655;SDS011;5884;43.618;1.438;2022-09-09T13:09:43;7.23;;;2.00;;
11655;SDS011;5884;43.618;1.438;2022-09-09T13:12:13;7.67;;;1.57;;
11655;SDS011;5884;43.618;1.438;2022-09-09T13:14:44;6.20;;;2.17;;
11655;SDS011;5884;43.618;1.438;2022-09-09T13:17:17;5.83;;;1.80;;
11655;SDS011;5884;43.618;1.438;2022-09-09T13:19:48;5.50;;;1.93;;
11655;SDS011;5884;43.618;1.438;2022-09-09T13:22:19;5.77;;;1.60;;
11655;SDS011;5884;43.618;1.438;2022-09-09T13:25:00;5.90;;;2.00;;
11655;SDS011;5884;43.618;1.438;2022-09-09T13:27:31;7.53;;;2.13;;
11655;SDS011;5884;43.618;1.438;2022-09-09T13:32:59;5.70;;;1.93;;
11655;SDS011;5884;43.618;1.438;2022-09-09T13:35:28;4.80;;;1.70;;
11655;SDS011;5884;43.618;1.438;2022-09-09T13:37:56;5.07;;;2.13;;
11655;SDS011;5884;43.618;1.438;2022-09-09T13:40:25;5.43;;;2.00;;
11655;SDS011;5884;43.618;1.438;2022-09-09T13:42:54;7.53;;;2.23;;
11655;SDS011;5884;43.618;1.438;2022-09-09T13:45:24;7.27;;;1.70;;
11655;SDS011;5884;43.618;1.438;2022-09-09T13:47:53;4.73;;;1.90;;
11655;SDS011;5884;43.618;1.438;2022-09-09T13:50:21;5.03;;;2.03;;
11655;SDS011;5884;43.618;1.438;2022-09-09T13:52:51;6.53;;;2.37;;
11655;SDS011;5884;43.618;1.438;2022-09-09T13:55:22;6.77;;;2.00;;
11655;SDS011;5884;43.618;1.438;2022-09-09T13:57:52;9.80;;;2.40;;
11655;SDS011;5884;43.618;1.438;2022-09-09T14:00:21;5.57;;;1.70;;
11655;SDS011;5884;43.618;1.438;2022-09-09T14:02:50;4.07;;;1.83;;
11655;SDS011;5884;43.618;1.438;2022-09-09T14:05:20;6.03;;;2.70;;
11655;SDS011;5884;43.618;1.438;2022-09-09T14:07:48;7.67;;;1.90;;
11655;SDS011;5884;43.618;1.438;2022-09-09T14:10:16;5.07;;;1.80;;
11655;SDS011;5884;43.618;1.438;2022-09-09T14:12:44;4.10;;;1.63;;
11655;SDS011;5884;43.618;1.438;2022-09-09T14:15:12;5.07;;;2.07;;
11655;SDS011;5884;43.618;1.438;2022-09-09T14:17:40;10.10;;;1.80;;
11655;SDS011;5884;43.618;1.438;2022-09-09T14:20:08;7.73;;;1.80;;
11655;SDS011;5884;43.618;1.438;2022-09-09T14:22:37;4.80;;;1.37;;
11655;SDS011;5884;43.618;1.438;2022-09-09T14:25:06;6.53;;;1.77;;
11655;SDS011;5884;43.618;1.438;2022-09-09T14:27:34;10.00;;;1.70;;
11655;SDS011;5884;43.618;1.438;2022-09-09T14:30:03;4.20;;;1.70;;
11655;SDS011;5884;43.618;1.438;2022-09-09T14:32:31;5.33;;;1.90;;
11655;SDS011;5884;43.618;1.438;2022-09-09T14:34:58;8.13;;;1.77;;
11655;SDS011;5884;43.618;1.438;2022-09-09T14:37:26;5.93;;;1.83;;
11655;SDS011;5884;43.618;1.438;2022-09-09T14:39:56;4.77;;;1.67;;
11655;SDS011;5884;43.618;1.438;2022-09-09T14:42:23;5.77;;;1.80;;
11655;SDS011;5884;43.618;1.438;2022-09-09T14:44:51;4.30;;;1.73;;
11655;SDS011;5884;43.618;1.438;2022-09-09T14:47:19;6.70;;;1.87;;
11655;SDS011;5884;43.618;1.438;2022-09-09T14:49:47;4.67;;;1.83;;
11655;SDS011;5884;43.618;1.438;2022-09-09T14:52:14;3.97;;;1.63;;
11655;SDS011;5884;43.618;1.438;2022-09-09T14:54:42;5.77;;;1.80;;
11655;SDS011;5884;43.618;1.438;2022-09-09T14:57:09;3.43;;;1.43;;
11655;SDS011;5884;43.618;1.438;2022-09-09T14:59:36;5.17;;;1.73;;
11655;SDS011;5884;43.618;1.438;2022-09-09T15:02:04;9.03;;;1.67;;
11655;SDS011;5884;43.618;1.438;2022-09-09T15:04:33;6.70;;;1.77;;
11655;SDS011;5884;43.618;1.438;2022-09-09T15:07:00;6.47;;;1.70;;
11655;SDS011;5884;43.618;1.438;2022-09-09T15:09:28;7.73;;;2.50;;
11655;SDS011;5884;43.618;1.438;2022-09-09T15:11:55;6.40;;;1.70;;
11655;SDS011;5884;43.618;1.438;2022-09-09T15:14:22;4.80;;;1.67;;
11655;SDS011;5884;43.618;1.438;2022-09-09T15:16:51;5.70;;;2.03;;
11655;SDS011;5884;43.618;1.438;2022-09-09T15:19:18;5.43;;;2.00;;
11655;SDS011;5884;43.618;1.438;2022-09-09T15:21:47;4.63;;;1.57;;
11655;SDS011;5884;43.618;1.438;2022-09-09T15:24:14;7.17;;;1.90;;
11655;SDS011;5884;43.618;1.438;2022-09-09T15:26:41;4.83;;;1.83;;
11655;SDS011;5884;43.618;1.438;2022-09-09T15:29:08;5.13;;;1.73;;
11655;SDS011;5884;43.618;1.438;2022-09-09T15:31:36;6.20;;;1.93;;
11655;SDS011;5884;43.618;1.438;2022-09-09T15:34:03;5.83;;;1.73;;
11655;SDS011;5884;43.618;1.438;2022-09-09T15:36:33;4.97;;;1.87;;
11655;SDS011;5884;43.618;1.438;2022-09-09T15:39:05;5.33;;;2.03;;
11655;SDS011;5884;43.618;1.438;2022-09-09T15:41:34;9.23;;;1.90;;
11655;SDS011;5884;43.618;1.438;2022-09-09T15:44:02;5.40;;;1.67;;
11655;SDS011;5884;43.618;1.438;2022-09-09T15:46:31;3.17;;;1.50;;
11655;SDS011;5884;43.618;1.438;2022-09-09T15:49:03;6.53;;;1.67;;
11655;SDS011;5884;43.618;1.438;2022-09-09T15:51:34;3.07;;;1.60;;
11655;SDS011;5884;43.618;1.438;2022-09-09T15:54:05;4.43;;;1.80;;
11655;SDS011;5884;43.618;1.438;2022-09-09T15:56:32;6.00;;;1.80;;
11655;SDS011;5884;43.618;1.438;2022-09-09T15:59:00;4.70;;;1.70;;
11655;SDS011;5884;43.618;1.438;2022-09-09T16:01:29;6.80;;;1.73;;
11655;SDS011;5884;43.618;1.438;2022-09-09T16:03:57;5.50;;;1.77;;
11655;SDS011;5884;43.618;1.438;2022-09-09T16:06:26;4.17;;;1.50;;
11655;SDS011;5884;43.618;1.438;2022-09-09T16:08:56;4.90;;;1.83;;
11655;SDS011;5884;43.618;1.438;2022-09-09T16:11:28;4.70;;;1.90;;
11655;SDS011;5884;43.618;1.438;2022-09-09T16:13:57;6.57;;;2.00;;
11655;SDS011;5884;43.618;1.438;2022-09-09T16:16:26;8.10;;;1.83;;
11655;SDS011;5884;43.618;1.438;2022-09-09T16:18:55;5.93;;;1.83;;
11655;SDS011;5884;43.618;1.438;2022-09-09T16:21:25;6.33;;;2.10;;
11655;SDS011;5884;43.618;1.438;2022-09-09T16:23:55;6.10;;;1.70;;
11655;SDS011;5884;43.618;1.438;2022-09-09T16:26:24;6.33;;;1.93;;
11655;SDS011;5884;43.618;1.438;2022-09-09T16:28:54;4.80;;;1.67;;
11655;SDS011;5884;43.618;1.438;2022-09-09T16:31:23;4.50;;;1.67;;
11655;SDS011;5884;43.618;1.438;2022-09-09T16:33:51;7.80;;;1.80;;
11655;SDS011;5884;43.618;1.438;2022-09-09T16:36:19;6.80;;;2.00;;
11655;SDS011;5884;43.618;1.438;2022-09-09T16:38:51;3.87;;;1.73;;
11655;SDS011;5884;43.618;1.438;2022-09-09T16:41:20;3.53;;;1.40;;
11655;SDS011;5884;43.618;1.438;2022-09-09T16:43:49;5.10;;;1.93;;
11655;SDS011;5884;43.618;1.438;2022-09-09T16:46:19;5.27;;;1.70;;
11655;SDS011;5884;43.618;1.438;2022-09-09T16:48:47;6.87;;;1.90;;
11655;SDS011;5884;43.618;1.438;2022-09-09T16:51:16;4.50;;;1.73;;
11655;SDS011;5884;43.618;1.438;2022-09-09T16:53:45;6.63;;;1.97;;
11655;SDS011;5884;43.618;1.438;2022-09-09T16:56:14;5.37;;;1.50;;
11655;SDS011;5884;43.618;1.438;2022-09-09T16:58:44;4.37;;;1.57;;
11655;SDS011;5884;43.618;1.438;2022-09-09T17:01:19;6.87;;;1.60;;
11655;SDS011;5884;43.618;1.438;2022-09-09T17:03:46;6.17;;;1.70;;
11655;SDS011;5884;43.618;1.438;2022-09-09T17:06:14;4.60;;;1.47;;
11655;SDS011;5884;43.618;1.438;2022-09-09T17:08:42;4.37;;;1.70;;
11655;SDS011;5884;43.618;1.438;2022-09-09T17:11:11;5.30;;;1.67;;
11655;SDS011;5884;43.618;1.438;2022-09-09T17:13:40;3.90;;;1.53;;
11655;SDS011;5884;43.618;1.438;2022-09-09T17:16:09;8.90;;;1.80;;
11655;SDS011;5884;43.618;1.438;2022-09-09T17:18:39;4.47;;;1.80;;
11655;SDS011;5884;43.618;1.438;2022-09-09T17:21:07;4.47;;;1.87;;
11655;SDS011;5884;43.618;1.438;2022-09-09T17:23:37;5.33;;;1.77;;
11655;SDS011;5884;43.618;1.438;2022-09-09T17:26:05;6.80;;;1.67;;
11655;SDS011;5884;43.618;1.438;2022-09-09T17:28:35;3.23;;;1.50;;
11655;SDS011;5884;43.618;1.438;2022-09-09T17:31:03;7.43;;;1.87;;
11655;SDS011;5884;43.618;1.438;2022-09-09T17:33:34;7.33;;;2.17;;
11655;SDS011;5884;43.618;1.438;2022-09-09T17:36:06;5.93;;;1.70;;
11655;SDS011;5884;43.618;1.438;2022-09-09T17:38:36;6.83;;;2.33;;
11655;SDS011;5884;43.618;1.438;2022-09-09T17:41:05;3.83;;;1.60;;
11655;SDS011;5884;43.618;1.438;2022-09-09T17:43:35;7.07;;;1.83;;
11655;SDS011;5884;43.618;1.438;2022-09-09T17:46:07;4.43;;;1.67;;
11655;SDS011;5884;43.618;1.438;2022-09-09T17:48:37;3.37;;;1.20;;
11655;SDS011;5884;43.618;1.438;2022-09-09T17:51:05;3.20;;;1.40;;
11655;SDS011;5884;43.618;1.438;2022-09-09T17:53:36;6.17;;;1.70;;
11655;SDS011;5884;43.618;1.438;2022-09-09T17:56:04;4.93;;;1.70;;
11655;SDS011;5884;43.618;1.438;2022-09-09T17:58:33;6.47;;;1.63;;
11655;SDS011;5884;43.618;1.438;2022-09-09T18:01:02;7.17;;;1.67;;
11655;SDS011;5884;43.618;1.438;2022-09-09T18:03:30;5.27;;;1.70;;
11655;SDS011;5884;43.618;1.438;2022-09-09T18:06:02;6.53;;;1.70;;
11655;SDS011;5884;43.618;1.438;2022-09-09T18:08:33;5.13;;;1.97;;
11655;SDS011;5884;43.618;1.438;2022-09-09T18:11:01;6.43;;;2.20;;
11655;SDS011;5884;43.618;1.438;2022-09-09T18:13:29;6.40;;;2.10;;
11655;SDS011;5884;43.618;1.438;2022-09-09T18:15:57;6.83;;;2.03;;
11655;SDS011;5884;43.618;1.438;2022-09-09T18:18:25;6.50;;;2.20;;
11655;SDS011;5884;43.618;1.438;2022-09-09T18:20:57;5.13;;;1.70;;
11655;SDS011;5884;43.618;1.438;2022-09-09T18:23:27;4.47;;;1.60;;
11655;SDS011;5884;43.618;1.438;2022-09-09T18:25:56;4.83;;;1.97;;
11655;SDS011;5884;43.618;1.438;2022-09-09T18:28:24;2.53;;;1.50;;
11655;SDS011;5884;43.618;1.438;2022-09-09T18:30:52;5.93;;;2.00;;
11655;SDS011;5884;43.618;1.438;2022-09-09T18:33:20;4.33;;;1.80;;
11655;SDS011;5884;43.618;1.438;2022-09-09T18:35:47;4.57;;;2.00;;
11655;SDS011;5884;43.618;1.438;2022-09-09T18:38:14;4.60;;;2.00;;
11655;SDS011;5884;43.618;1.438;2022-09-09T18:40:43;3.97;;;1.63;;
11655;SDS011;5884;43.618;1.438;2022-09-09T18:43:10;5.40;;;1.83;;
11655;SDS011;5884;43.618;1.438;2022-09-09T18:45:38;6.90;;;1.60;;
11655;SDS011;5884;43.618;1.438;2022-09-09T18:48:05;4.60;;;1.63;;
11655;SDS011;5884;43.618;1.438;2022-09-09T18:50:32;5.50;;;1.80;;
11655;SDS011;5884;43.618;1.438;2022-09-09T18:53:00;4.00;;;1.50;;
11655;SDS011;5884;43.618;1.438;2022-09-09T18:55:27;6.80;;;2.17;;
11655;SDS011;5884;43.618;1.438;2022-09-09T18:57:55;6.10;;;2.10;;
11655;SDS011;5884;43.618;1.438;2022-09-09T19:00:23;5.13;;;2.00;;
11655;SDS011;5884;43.618;1.438;2022-09-09T19:02:51;4.73;;;1.93;;
11655;SDS011;5884;43.618;1.438;2022-09-09T19:05:18;6.20;;;2.07;;
11655;SDS011;5884;43.618;1.438;2022-09-09T19:07:46;3.83;;;1.70;;
11655;SDS011;5884;43.618;1.438;2022-09-09T19:10:13;5.70;;;1.97;;
11655;SDS011;5884;43.618;1.438;2022-09-09T19:12:40;3.27;;;1.57;;
11655;SDS011;5884;43.618;1.438;2022-09-09T19:15:09;4.53;;;1.80;;
11655;SDS011;5884;43.618;1.438;2022-09-09T19:17:36;6.07;;;1.80;;
11655;SDS011;5884;43.618;1.438;2022-09-09T19:20:04;3.93;;;1.57;;
11655;SDS011;5884;43.618;1.438;2022-09-09T19:22:34;3.30;;;1.50;;
11655;SDS011;5884;43.618;1.438;2022-09-09T19:25:01;4.27;;;1.53;;
11655;SDS011;5884;43.618;1.438;2022-09-09T19:27:30;3.83;;;1.30;;
11655;SDS011;5884;43.618;1.438;2022-09-09T19:29:57;3.33;;;1.70;;
11655;SDS011;5884;43.618;1.438;2022-09-09T19:32:26;6.53;;;1.90;;
11655;SDS011;5884;43.618;1.438;2022-09-09T19:34:54;4.97;;;1.77;;
11655;SDS011;5884;43.618;1.438;2022-09-09T19:37:21;3.43;;;1.50;;
11655;SDS011;5884;43.618;1.438;2022-09-09T19:39:48;5.40;;;1.70;;
11655;SDS011;5884;43.618;1.438;2022-09-09T19:42:16;6.40;;;1.37;;
11655;SDS011;5884;43.618;1.438;2022-09-09T19:44:43;4.87;;;1.57;;
11655;SDS011;5884;43.618;1.438;2022-09-09T19:47:10;3.70;;;2.00;;
11655;SDS011;5884;43.618;1.438;2022-09-09T19:49:40;6.07;;;1.87;;
11655;SDS011;5884;43.618;1.438;2022-09-09T19:52:07;3.77;;;1.60;;
11655;SDS011;5884;43.618;1.438;2022-09-09T19:54:35;3.20;;;1.70;;
11655;SDS011;5884;43.618;1.438;2022-09-09T19:57:03;5.93;;;1.70;;
11655;SDS011;5884;43.618;1.438;2022-09-09T19:59:30;6.67;;;2.13;;
11655;SDS011;5884;43.618;1.438;2022-09-09T20:01:57;5.27;;;1.70;;
11655;SDS011;5884;43.618;1.438;2022-09-09T20:04:25;4.40;;;1.70;;
11655;SDS011;5884;43.618;1.438;2022-09-09T20:06:53;6.43;;;2.10;;
11655;SDS011;5884;43.618;1.438;2022-09-09T20:09:21;4.47;;;1.50;;
11655;SDS011;5884;43.618;1.438;2022-09-09T20:11:50;3.67;;;1.50;;
11655;SDS011;5884;43.618;1.438;2022-09-09T20:14:17;4.23;;;1.50;;
11655;SDS011;5884;43.618;1.438;2022-09-09T20:16:45;6.23;;;1.60;;
11655;SDS011;5884;43.618;1.438;2022-09-09T20:19:12;6.40;;;1.50;;
11655;SDS011;5884;43.618;1.438;2022-09-09T20:21:42;7.67;;;1.70;;
11655;SDS011;5884;43.618;1.438;2022-09-09T20:24:14;6.00;;;1.70;;